Pagrindinis puslapis
METAR-TAF:

METAR-TAF

Oro uostai :

Ahras, Turkija

platuma: 39-39-16N, ilguma: 43-01-38E, Aukštis: 1665 m

Dabartinis oras

Ataskaita buvo paskelbta 7 valandos ir 23 minutes, ne 12:50 UTC
Vėjas 2 kt nuo kintamojo kryptimis
Temperatūra -2°C
Drėgmė 80%
Slėgis 1022 hPa
Matomumas 10 km arba daugiau
Su prošvaistėmis ne aukštis 2500 ft
Su prošvaistėmis ne aukštis 6000 ft
sniegas

METAR: LTCO 021250Z VRB02KT 9999 -SN BKN025 BKN060 M02/M05 Q1022

Laikas: 23:13 (20:13 UTC)

Prognozė

Ataskaita buvo paskelbta 6 valandos ir 33 minutes, ne 13:40 UTC
Prognozė galioja nuo 02 metu 15 UTC su 02 metu 24 UTC
Vėjas 2 kt nuo kintamojo kryptimis
Matomumas: 8000 m
Su prošvaistėmis ne aukštis 2500 ft
Su prošvaistėmis ne aukštis 7000 ft
Laikinai
nuo 02 metu 15 UTC su 02 metu 19 UTC
Matomumas: 4000 m
sniegas, rūkana

TAF: LTCO 021340Z 0215/0224 VRB02KT 8000 BKN025 BKN070 TEMPO 0215/0219 4000 -SN BR

Orai ataskaitas ir orų prognozės (METAR, TAF).

turimą stotys yra geltonos ir raudonos taškus žemėlapyje.

Perkelti pele per norėdami pamatyti stoties vardą.

Tada spustelėkite, norėdami matyti oro stebėjimo ir prognozės.

Norėdami pakeisti žemėlapį: spustelėkite ant žalios mygtukų su juodo kryžiaus žemyn,; žalią mygtuką su brūkšneliu, jei norite nutolinti; arba žalių rodyklių gretimoms žemėlapius.


METAR-TAF: